セントジョンズ の空港の天気 - METARとTAF

セント・ジョンズ国際空港 ( CYYT / YYT ) - カナダ ニューファンドランド・ラブラドール州セントジョンズ
飛行場実況気象(Metar)
観測時間10/16 04:10 NDT (10/16 06:40 UTC)
風向・風速南西 3m/s
視程10km以上
天気現象
全天の8割程度の雲 雲底高度 7320m
気温2℃
湿度93%
気圧1019.3hPa
METARCYYT 160640Z 22006KT 15SM BKN240 02/01 A3008 RMK CI5 SLP193
過去の天気等 Google飛行場航空写真 Wunderground天気予報

過去48時間のMETAR

飛行場予報(TAF)
発表時間: 10/16 03:13 NDT (10/16 05:43 UTC)
予報対象時間: 16日3時 NDT ~ 17日3時 NDT
風向・風速西南西 5m/s
視程10km以上
少しの雲 雲底高度 1520m
全天の4割程度の雲 雲底高度 6100m
16日3時 NDT ~ 16日5時 NDT に徐々に
風向・風速南 8m/s 瞬間風速 13m/s
16日5時 NDT から
風向・風速南 8m/s 瞬間風速 13m/s
視程10km以上
全天の4割程度の雲 雲底高度 1520m
全天の8割程度の雲 雲底高度 3050m
16日8時 NDT から
風向・風速南 13m/s 瞬間風速 21m/s
視程10km以上
全天の8割程度の雲 雲底高度 1520m
全天を覆う雲 雲底高度 3050m
16日12時 NDT から
風向・風速南 18m/s 瞬間風速 26m/s
視程10km以上
天気現象弱い雨
全天の4割程度の雲 雲底高度 240m
全天の8割程度の雲 雲底高度 460m
全天を覆う雲 雲底高度 1520m
16日12時 NDT ~ 16日17時 NDT に一時的に
視程4830m
天気現象雨 もや
全天を覆う雲 雲底高度 240m
16日17時 NDT から
風向・風速西南西 15m/s 瞬間風速 23m/s
視程10km以上
全天の4割程度の雲 雲底高度 910m
16日17時 NDT ~ 16日19時 NDT に一時的に
全天の8割程度の雲 雲底高度 910m
17日0時 NDT から
風向・風速西南西 15m/s 瞬間風速 23m/s
視程10km以上
全天の8割程度の雲 雲底高度 910m
TAF CYYT 160543Z 1606/1706 25010KT P6SM FEW050 SCT200
BECMG 1606/1608 18015G25KT
FM160800 18015G25KT P6SM SCT050 BKN100
FM161100 18025G40KT P6SM BKN050 OVC100
FM161500 18035G50KT P6SM -RA SCT008 BKN015 OVC050
TEMPO 1615/1620 3SM RA BR OVC008
FM162000 25030G45KT P6SM SCT030
TEMPO 1620/1622 BKN030
FM170300 25030G45KT P6SM BKN030 RMK NXT FCST BY 161200Z